Time;durP1;ratioP1;P1;durP2;ratioP2;P2;SDS_P1;SDS_P2;PMS_P1;PMS_P2;Temp;Humidity;BMP_temperature;BMP_pressure;BME280_temperature;BME280_humidity;BME280_pressure;Samples;Min_cycle;Max_cycle;Signal;HPM_P1;HPM_P2
2022/08/07 00:00:32;;;;;;;1.60;0.70;;;;;;;16.56;43.96;100868.03;5005451;28;20234;-66
2022/08/07 00:02:58;;;;;;;2.20;0.87;;;;;;;16.50;44.08;100865.03;5009321;28;20622;-68
2022/08/07 00:05:24;;;;;;;5.50;0.80;;;;;;;16.56;44.12;100854.19;5013263;28;20245;-68
2022/08/07 00:07:50;;;;;;;2.47;0.87;;;;;;;16.61;43.63;100854.75;5003472;28;20297;-68
2022/08/07 00:10:16;;;;;;;1.57;0.87;;;;;;;16.59;43.75;100854.81;4998411;28;20711;-71
2022/08/07 00:12:42;;;;;;;1.67;0.90;;;;;;;16.70;43.70;100851.50;5005607;28;20207;-70
2022/08/07 00:15:09;;;;;;;1.30;0.80;;;;;;;16.55;43.84;100847.38;5011525;28;20182;-68
2022/08/07 00:17:34;;;;;;;5.93;1.20;;;;;;;16.56;43.83;100844.66;5002764;28;20230;-66
2022/08/07 00:20:00;;;;;;;2.13;0.70;;;;;;;16.53;43.73;100849.22;5007742;28;20191;-69
2022/08/07 00:22:25;;;;;;;2.17;0.50;;;;;;;16.57;44.44;100842.88;5007957;28;20224;-69
2022/08/07 00:24:50;;;;;;;1.57;0.80;;;;;;;16.57;44.13;100842.88;5020099;28;20175;-68
2022/08/07 00:27:16;;;;;;;1.20;0.90;;;;;;;16.56;43.99;100836.03;5012838;28;20218;-68
2022/08/07 00:29:41;;;;;;;0.80;0.80;;;;;;;16.46;44.03;100834.06;5012831;28;20186;-69
2022/08/07 00:32:07;;;;;;;1.63;0.57;;;;;;;16.39;44.25;100835.41;5014006;28;20229;-68
2022/08/07 00:34:33;;;;;;;1.07;0.60;;;;;;;16.39;44.66;100832.00;5028721;28;20171;-68
2022/08/07 00:36:58;;;;;;;0.90;0.70;;;;;;;16.40;44.87;100839.66;5012863;28;20179;-68
2022/08/07 00:39:23;;;;;;;2.87;0.90;;;;;;;16.41;44.66;100836.16;5011802;28;20278;-67
2022/08/07 00:41:55;;;;;;;3.13;0.70;;;;;;;16.35;44.68;100836.56;5016163;28;20234;-68
2022/08/07 00:44:20;;;;;;;1.03;0.70;;;;;;;16.34;44.64;100826.28;5013952;28;20591;-68
2022/08/07 00:46:46;;;;;;;4.93;0.70;;;;;;;16.43;44.80;100830.84;5011983;28;20229;-69
2022/08/07 00:49:11;;;;;;;1.10;0.70;;;;;;;16.49;44.50;100827.00;5000383;28;20183;-69
2022/08/07 00:51:37;;;;;;;2.57;0.73;;;;;;;16.41;45.22;100830.09;5004455;28;20229;-69
2022/08/07 00:54:03;;;;;;;1.33;0.60;;;;;;;16.28;45.53;100830.94;5014948;28;20183;-69
2022/08/07 00:56:28;;;;;;;1.43;0.97;;;;;;;16.20;46.39;100822.84;5013072;28;20268;-69
2022/08/07 00:58:54;;;;;;;0.93;0.70;;;;;;;16.05;47.91;100827.28;5012565;28;20194;-69
2022/08/07 01:01:21;;;;;;;1.30;0.80;;;;;;;16.02;48.88;100824.06;5004516;28;20237;-68
2022/08/07 01:03:48;;;;;;;3.10;1.13;;;;;;;15.84;49.85;100828.69;5008267;28;20274;-74
2022/08/07 01:06:14;;;;;;;1.07;0.90;;;;;;;15.64;50.58;100813.47;5011790;28;20258;-68
2022/08/07 01:08:40;;;;;;;2.57;1.20;;;;;;;15.41;51.10;100824.47;5012008;28;20178;-68
2022/08/07 01:11:06;;;;;;;1.60;1.17;;;;;;;15.22;52.17;100828.22;5010090;28;20248;-68
2022/08/07 01:13:31;;;;;;;1.10;0.97;;;;;;;15.08;52.28;100817.88;5009761;28;20179;-69
2022/08/07 01:15:58;;;;;;;1.20;0.97;;;;;;;14.99;52.52;100821.88;5022560;28;20232;-68
2022/08/07 01:18:23;;;;;;;1.13;1.00;;;;;;;14.96;53.20;100817.72;5012939;28;20197;-69
2022/08/07 01:21:04;;;;;;;1.27;0.77;;;;;;;14.89;53.20;100815.59;5006952;28;20218;-68
2022/08/07 01:23:30;;;;;;;1.03;0.90;;;;;;;14.85;53.63;100817.53;5020507;28;20302;-68
2022/08/07 01:25:55;;;;;;;2.27;0.93;;;;;;;14.76;54.12;100813.75;5012818;28;20209;-68
2022/08/07 01:28:21;;;;;;;1.73;0.90;;;;;;;14.72;54.87;100820.03;5012542;28;20178;-68
2022/08/07 01:30:48;;;;;;;2.90;1.43;;;;;;;14.67;55.04;100816.88;5000897;28;20230;-70
2022/08/07 01:33:14;;;;;;;1.63;1.00;;;;;;;14.60;55.90;100813.81;5011684;28;20214;-69
2022/08/07 01:35:39;;;;;;;1.00;0.77;;;;;;;14.55;56.43;100805.50;5015890;28;20575;-68
2022/08/07 01:38:06;;;;;;;2.43;0.90;;;;;;;14.51;57.06;100806.59;5012530;28;20673;-68
2022/08/07 01:40:31;;;;;;;0.80;0.80;;;;;;;14.45;57.19;100809.53;5001179;28;20230;-69
2022/08/07 01:42:57;;;;;;;3.23;0.90;;;;;;;14.40;57.62;100814.16;5015343;28;20212;-68
2022/08/07 01:45:23;;;;;;;1.13;0.87;;;;;;;14.33;57.73;100808.53;5010722;28;20232;-68
2022/08/07 01:47:48;;;;;;;3.60;1.10;;;;;;;14.22;58.66;100811.75;5007715;28;20631;-68
2022/08/07 01:50:14;;;;;;;1.20;0.90;;;;;;;14.18;58.56;100811.09;4998891;28;20190;-68
2022/08/07 01:52:41;;;;;;;1.80;1.13;;;;;;;14.12;59.10;100810.63;5026200;28;20266;-68
2022/08/07 01:55:09;;;;;;;2.70;1.13;;;;;;;14.13;59.04;100817.47;5010565;28;20264;-68
2022/08/07 01:57:38;;;;;;;2.87;0.80;;;;;;;14.10;59.02;100815.88;5010319;28;20179;-68
2022/08/07 02:00:08;;;;;;;3.47;0.87;;;;;;;14.01;59.30;100812.06;5002612;28;20587;-68
2022/08/07 02:02:51;;;;;;;3.50;0.93;;;;;;;13.94;59.31;100815.94;5026312;28;20635;-68
2022/08/07 02:05:24;;;;;;;0.60;0.60;;;;;;;13.96;59.21;100814.06;5011400;28;20673;-68
2022/08/07 02:07:52;;;;;;;2.10;1.00;;;;;;;13.94;60.25;100815.09;5010835;28;20206;-68
2022/08/07 02:10:24;;;;;;;0.67;0.60;;;;;;;13.92;60.46;100804.84;5003680;28;20202;-68
2022/08/07 02:12:52;;;;;;;1.17;0.80;;;;;;;13.92;60.73;100801.41;5010727;28;20631;-68
2022/08/07 02:15:21;;;;;;;1.27;1.17;;;;;;;13.90;60.98;100805.84;5016809;28;20593;-68
2022/08/07 02:17:47;;;;;;;0.83;0.80;;;;;;;13.86;60.29;100805.19;5007756;28;20749;-69
2022/08/07 02:20:14;;;;;;;2.03;0.90;;;;;;;13.84;60.95;100800.09;4999848;28;20190;-68
2022/08/07 02:22:40;;;;;;;1.30;0.83;;;;;;;13.90;61.73;100804.09;5025585;28;20605;-68
2022/08/07 02:28:30;;;;;;;1.03;0.80;;;;;;;13.69;62.55;100800.97;5010641;28;20233;-68
2022/08/07 02:30:57;;;;;;;6.80;1.30;;;;;;;13.61;62.34;100806.56;5000427;28;20261;-68
2022/08/07 02:33:25;;;;;;;1.20;0.83;;;;;;;13.64;61.91;100800.41;5011208;28;20190;-69
2022/08/07 02:35:51;;;;;;;1.40;0.83;;;;;;;13.63;62.01;100801.31;5013783;28;20179;-69
2022/08/07 02:38:20;;;;;;;1.23;0.90;;;;;;;13.53;62.13;100796.66;5011610;28;20186;-69
2022/08/07 02:40:46;;;;;;;1.67;0.97;;;;;;;13.51;62.58;100800.25;5007662;28;20226;-68
2022/08/07 02:43:13;;;;;;;0.60;0.53;;;;;;;13.42;62.70;100799.03;5021723;28;20198;-68
2022/08/07 02:45:41;;;;;;;2.10;0.90;;;;;;;13.43;62.82;100794.69;5006659;28;20195;-68
2022/08/07 02:48:07;;;;;;;1.37;0.80;;;;;;;13.36;63.10;100794.97;5002728;28;20191;-69
2022/08/07 02:50:37;;;;;;;1.33;0.60;;;;;;;13.47;63.31;100791.84;5009572;28;20629;-68
2022/08/07 02:53:06;;;;;;;1.00;0.77;;;;;;;13.38;63.59;100788.03;5026606;28;20179;-68
2022/08/07 02:55:36;;;;;;;0.87;0.80;;;;;;;13.34;64.10;100789.06;5014809;28;20212;-69
2022/08/07 02:58:10;;;;;;;2.50;0.90;;;;;;;13.21;64.33;100782.94;5014064;28;20559;-70
2022/08/07 03:00:37;;;;;;;1.70;0.90;;;;;;;13.21;65.30;100793.25;4989220;28;20662;-69
2022/08/07 03:03:06;;;;;;;2.70;1.00;;;;;;;13.12;65.18;100781.66;5003029;28;20944;-68
2022/08/07 03:05:32;;;;;;;2.60;1.10;;;;;;;13.13;64.93;100775.56;5014511;28;20321;-69
2022/08/07 03:07:57;;;;;;;2.23;1.20;;;;;;;13.11;64.99;100779.16;5015174;28;20264;-77
2022/08/07 03:10:23;;;;;;;2.00;1.03;;;;;;;13.10;64.64;100777.47;5007801;28;20245;-68
2022/08/07 03:12:50;;;;;;;1.23;0.87;;;;;;;13.01;64.90;100771.91;5040038;28;20547;-68
2022/08/07 03:15:16;;;;;;;1.27;0.70;;;;;;;12.94;66.08;100777.47;5014734;28;20181;-68
2022/08/07 03:17:42;;;;;;;0.73;0.73;;;;;;;12.90;66.59;100764.75;5016524;28;20181;-68
2022/08/07 03:20:09;;;;;;;1.63;0.90;;;;;;;12.88;66.53;100776.88;5005052;28;20190;-68
2022/08/07 03:22:36;;;;;;;0.80;0.80;;;;;;;12.87;66.64;100775.22;5013667;28;20190;-68
2022/08/07 03:25:02;;;;;;;1.60;0.90;;;;;;;12.87;66.92;100777.81;5013351;28;20190;-70
2022/08/07 03:27:29;;;;;;;1.10;0.80;;;;;;;12.85;67.09;100773.63;5013575;28;20735;-68
2022/08/07 03:29:54;;;;;;;4.60;1.30;;;;;;;12.79;67.46;100773.97;5014607;28;20239;-70
2022/08/07 03:32:32;;;;;;;1.57;0.70;;;;;;;12.80;67.29;100775.63;4983482;28;20218;-68
2022/08/07 03:35:01;;;;;;;2.10;0.70;;;;;;;12.81;67.21;100774.72;5016905;28;20181;-69
2022/08/07 03:37:30;;;;;;;2.93;1.10;;;;;;;12.76;68.08;100772.38;5014938;28;20224;-70
2022/08/07 03:39:56;;;;;;;1.23;0.90;;;;;;;12.81;67.46;100766.97;5013346;28;20197;-69
2022/08/07 03:42:22;;;;;;;1.60;0.70;;;;;;;12.79;67.76;100761.06;5003336;28;20710;-70
2022/08/07 03:44:48;;;;;;;1.77;0.90;;;;;;;12.79;68.48;100767.06;5014087;28;20191;-69
2022/08/07 03:47:14;;;;;;;1.57;1.10;;;;;;;12.79;68.85;100761.06;5014604;28;20332;-68
2022/08/07 03:49:41;;;;;;;1.00;0.80;;;;;;;12.79;68.64;100761.91;5013343;28;20692;-68
2022/08/07 03:52:08;;;;;;;0.77;0.70;;;;;;;12.79;68.48;100769.66;5002249;28;20233;-68
2022/08/07 03:54:34;;;;;;;1.63;0.90;;;;;;;12.78;68.39;100767.97;5009458;28;20237;-68
2022/08/07 03:57:01;;;;;;;2.23;0.97;;;;;;;12.75;68.53;100770.72;5009403;28;20261;-68
2022/08/07 03:59:27;;;;;;;2.43;1.00;;;;;;;12.72;68.96;100763.97;5012968;28;20198;-69
2022/08/07 04:01:54;;;;;;;2.47;0.83;;;;;;;12.71;68.73;100772.66;5018359;28;20704;-69
2022/08/07 04:04:21;;;;;;;1.60;0.80;;;;;;;12.69;69.47;100774.47;5015304;28;20190;-69
2022/08/07 04:06:46;;;;;;;0.57;0.57;;;;;;;12.72;69.70;100770.88;5013838;28;20320;-68
2022/08/07 04:09:14;;;;;;;1.30;0.90;;;;;;;12.73;68.93;100769.97;5014019;28;20185;-69
2022/08/07 04:11:40;;;;;;;2.70;0.90;;;;;;;12.83;69.10;100768.56;5013245;28;20239;-68
2022/08/07 04:14:06;;;;;;;2.23;1.17;;;;;;;12.84;69.15;100772.81;5021537;28;20197;-69
2022/08/07 04:16:32;;;;;;;3.50;1.07;;;;;;;12.83;69.43;100778.06;5024844;28;20773;-69
2022/08/07 04:19:00;;;;;;;3.83;0.93;;;;;;;12.88;68.74;100779.47;5014203;28;20195;-69
2022/08/07 04:21:26;;;;;;;2.47;1.10;;;;;;;12.87;70.37;100779.56;5002736;28;20695;-68
2022/08/07 04:23:52;;;;;;;1.77;1.03;;;;;;;12.89;70.22;100778.56;5013129;28;20178;-68
2022/08/07 04:26:18;;;;;;;3.50;1.20;;;;;;;12.91;69.22;100783.63;5012067;28;20201;-68
2022/08/07 04:28:43;;;;;;;1.40;0.93;;;;;;;12.91;69.43;100786.22;5013942;28;20278;-68
2022/08/07 04:31:09;;;;;;;1.63;0.97;;;;;;;12.96;69.63;100788.56;5012418;28;20798;-68
2022/08/07 04:33:38;;;;;;;2.90;1.03;;;;;;;13.00;69.11;100780.56;5020442;28;20186;-68
2022/08/07 04:36:07;;;;;;;2.57;1.27;;;;;;;13.06;68.99;100775.09;5015602;28;20269;-68
2022/08/07 04:38:33;;;;;;;2.87;0.90;;;;;;;13.06;68.90;100785.41;5011837;28;20265;-69
2022/08/07 04:40:58;;;;;;;1.27;0.90;;;;;;;13.13;68.42;100792.84;5010795;28;20320;-69
2022/08/07 04:43:27;;;;;;;1.63;1.10;;;;;;;13.15;68.20;100796.16;5012162;28;20308;-69
2022/08/07 04:46:32;;;;;;;3.13;1.10;;;;;;;13.15;68.27;100793.59;5008453;28;20198;-69
2022/08/07 04:48:57;;;;;;;0.97;0.87;;;;;;;13.44;67.84;100801.53;5011574;28;20574;-70
2022/08/07 04:51:34;;;;;;;1.50;1.10;;;;;;;13.54;66.27;100802.66;5001651;28;20226;-69
2022/08/07 04:54:06;;;;;;;3.90;0.93;;;;;;;13.58;65.42;100800.75;5012258;28;20189;-69
2022/08/07 04:56:44;;;;;;;4.30;0.90;;;;;;;13.62;65.02;100802.22;5013419;28;20197;-69
2022/08/07 04:59:36;;;;;;;1.97;0.70;;;;;;;13.74;64.04;100809.28;5013151;28;20170;-69
2022/08/07 05:02:22;;;;;;;1.13;0.70;;;;;;;13.77;64.19;100805.69;5017960;28;20226;-69
2022/08/07 05:04:59;;;;;;;1.00;0.90;;;;;;;13.89;65.20;100807.59;5012574;28;20189;-69
2022/08/07 05:07:37;;;;;;;2.90;1.00;;;;;;;14.04;64.82;100803.28;5010567;28;20218;-69
2022/08/07 05:10:06;;;;;;;1.53;0.80;;;;;;;14.17;64.94;100806.00;5007330;28;20631;-69
2022/08/07 05:12:54;;;;;;;0.80;0.80;;;;;;;14.22;63.38;100813.50;5019579;28;20203;-70
2022/08/07 05:15:34;;;;;;;1.60;0.90;;;;;;;14.35;62.91;100807.50;5022069;28;20189;-69
2022/08/07 05:18:28;;;;;;;4.17;0.90;;;;;;;14.39;62.84;100809.91;5012598;28;20178;-69
2022/08/07 05:20:56;;;;;;;0.83;0.83;;;;;;;14.62;61.24;100817.13;4999775;28;20326;-69
2022/08/07 05:23:29;;;;;;;0.97;0.80;;;;;;;14.76;63.25;100818.09;5011996;28;21034;-65
2022/08/07 05:25:56;;;;;;;3.03;1.30;;;;;;;14.99;62.28;100820.09;5010468;28;20269;-66
2022/08/07 05:28:22;;;;;;;2.87;0.97;;;;;;;15.11;60.97;100828.88;5010559;28;20167;-65
2022/08/07 05:30:48;;;;;;;3.07;1.00;;;;;;;15.16;63.10;100828.59;5008026;28;20302;-66
2022/08/07 05:33:15;;;;;;;0.90;0.80;;;;;;;15.29;58.07;100821.72;5027645;28;20210;-66
2022/08/07 05:35:41;;;;;;;1.63;0.90;;;;;;;15.61;55.91;100818.00;5011922;28;20180;-66
2022/08/07 05:38:08;;;;;;;1.50;0.77;;;;;;;15.86;57.56;100819.88;5006168;28;20203;-66
2022/08/07 05:40:36;;;;;;;1.90;1.10;;;;;;;15.82;54.90;100827.00;5004010;28;20292;-66
2022/08/07 05:43:01;;;;;;;3.57;0.80;;;;;;;16.07;54.13;100819.41;5023219;28;20277;-66
2022/08/07 05:45:28;;;;;;;1.23;0.80;;;;;;;16.26;50.83;100826.78;5011548;28;20258;-66
2022/08/07 05:47:54;;;;;;;2.60;0.90;;;;;;;16.56;49.72;100830.81;5012020;28;20210;-66
2022/08/07 05:50:21;;;;;;;1.70;0.90;;;;;;;16.73;48.88;100827.06;5003044;28;20171;-66
2022/08/07 05:52:46;;;;;;;1.23;0.70;;;;;;;16.87;48.51;100833.91;5025162;28;20590;-66
2022/08/07 05:55:12;;;;;;;0.93;0.80;;;;;;;16.97;47.59;100834.97;5011465;28;20190;-66
2022/08/07 05:57:40;;;;;;;1.53;0.60;;;;;;;17.12;46.45;100833.06;5010478;28;20185;-66
2022/08/07 06:00:07;;;;;;;1.23;0.60;;;;;;;17.19;45.95;100838.66;5000801;28;20175;-66
2022/08/07 06:02:35;;;;;;;1.60;0.70;;;;;;;17.30;45.47;100836.13;5010670;28;20193;-66
2022/08/07 06:05:07;;;;;;;0.90;0.53;;;;;;;17.52;45.32;100840.63;5011424;28;20182;-66
2022/08/07 06:07:34;;;;;;;0.87;0.50;;;;;;;17.53;44.54;100841.47;5007384;28;20270;-66
2022/08/07 06:10:00;;;;;;;1.33;0.50;;;;;;;17.72;44.56;100839.19;5001716;28;20189;-66
2022/08/07 06:12:26;;;;;;;1.63;0.60;;;;;;;17.87;44.16;100850.25;5012409;28;20214;-66
2022/08/07 06:14:52;;;;;;;1.33;0.80;;;;;;;17.87;43.67;100846.81;5017709;28;20509;-66
2022/08/07 06:17:20;;;;;;;0.50;0.43;;;;;;;17.93;43.22;100850.72;5018248;28;20209;-66
2022/08/07 06:19:46;;;;;;;0.90;0.67;;;;;;;18.04;43.16;100840.38;5010785;28;20185;-66
2022/08/07 06:22:13;;;;;;;2.37;0.80;;;;;;;18.12;42.47;100845.00;5003182;28;20291;-67
2022/08/07 06:24:38;;;;;;;1.23;0.60;;;;;;;18.34;41.88;100847.66;5015009;28;20197;-67
2022/08/07 06:27:04;;;;;;;2.40;0.70;;;;;;;18.37;40.88;100839.63;5012573;28;20194;-67
2022/08/07 06:29:29;;;;;;;2.10;0.70;;;;;;;18.61;41.02;100843.91;5014342;28;20205;-67
2022/08/07 06:31:55;;;;;;;0.57;0.57;;;;;;;18.66;40.84;100846.16;4996779;28;20305;-67
2022/08/07 06:34:25;;;;;;;3.40;0.80;;;;;;;18.86;39.88;100842.00;5025863;28;20179;-67
2022/08/07 06:36:51;;;;;;;1.80;0.60;;;;;;;19.05;38.99;100843.22;5014261;28;20525;-67
2022/08/07 06:39:16;;;;;;;0.80;0.50;;;;;;;18.90;39.89;100847.81;5014140;28;20591;-73
2022/08/07 06:41:45;;;;;;;1.20;0.90;;;;;;;19.05;38.66;100843.22;4995663;28;20218;-74
2022/08/07 06:44:12;;;;;;;1.00;0.63;;;;;;;19.24;38.01;100848.63;5012331;28;20326;-73
2022/08/07 06:46:38;;;;;;;0.50;0.50;;;;;;;19.68;37.53;100846.00;5014907;28;20681;-75
2022/08/07 06:49:05;;;;;;;1.70;0.70;;;;;;;20.23;36.44;100838.03;5012006;28;20171;-74
2022/08/07 06:51:33;;;;;;;1.03;0.60;;;;;;;20.88;35.22;100834.38;5005813;28;20253;-74
2022/08/07 06:54:02;;;;;;;0.67;0.57;;;;;;;21.96;33.25;100837.91;5018177;28;20183;-75
2022/08/07 06:56:46;;;;;;;0.90;0.60;;;;;;;22.67;31.87;100838.44;5015201;28;20186;-75
2022/08/07 06:59:15;;;;;;;2.20;0.70;;;;;;;22.02;32.95;100833.94;5013990;28;20191;-74
2022/08/07 07:01:41;;;;;;;1.10;0.50;;;;;;;22.15;32.22;100831.00;4983017;28;20233;-74
2022/08/07 07:04:08;;;;;;;0.70;0.50;;;;;;;22.12;32.62;100833.91;5007867;28;20229;-74
2022/08/07 07:06:33;;;;;;;0.57;0.30;;;;;;;22.52;31.72;100832.84;5015101;28;20230;-74
2022/08/07 07:09:22;;;;;;;0.93;0.40;;;;;;;23.76;30.05;100842.84;5013862;28;20661;-74
2022/08/07 07:12:06;;;;;;;7.63;0.63;;;;;;;23.79;29.79;100833.84;5006417;28;20339;-74
2022/08/07 07:14:48;;;;;;;1.53;0.50;;;;;;;23.38;30.17;100836.94;5017637;28;20190;-74
2022/08/07 07:17:26;;;;;;;0.70;0.40;;;;;;;23.32;30.23;100833.13;4996880;28;20674;-74
2022/08/07 07:19:56;;;;;;;1.43;0.50;;;;;;;24.22;29.43;100834.00;5001373;28;20185;-74
2022/08/07 07:22:23;;;;;;;1.00;0.50;;;;;;;24.17;29.64;100830.06;5004035;28;20230;-74
2022/08/07 07:24:49;;;;;;;1.33;0.53;;;;;;;23.66;29.67;100836.88;5014535;28;20225;-75
2022/08/07 07:27:17;;;;;;;0.83;0.50;;;;;;;23.84;29.06;100823.69;5013485;28;20186;-74
2022/08/07 07:29:46;;;;;;;1.07;0.60;;;;;;;23.67;29.95;100838.53;5012935;28;20218;-75
2022/08/07 07:32:13;;;;;;;1.50;0.75;;;;;;;24.68;28.76;100831.13;4982799;28;20674;-75
2022/08/07 07:34:43;;;;;;;0.88;0.52;;;;;;;24.63;28.30;100835.03;5016097;28;20195;-75
2022/08/07 07:37:10;;;;;;;2.20;0.77;;;;;;;25.90;26.92;100834.94;5015068;28;20179;-75
2022/08/07 07:39:37;;;;;;;1.20;0.57;;;;;;;26.66;25.39;100839.06;5014562;28;20275;-75
2022/08/07 07:42:04;;;;;;;0.70;0.40;;;;;;;26.60;25.54;100837.91;5005354;28;20229;-75
2022/08/07 07:44:32;;;;;;;0.52;0.45;;;;;;;27.51;24.57;100827.72;5012810;28;20183;-75
2022/08/07 07:47:00;;;;;;;0.90;0.57;;;;;;;28.06;24.31;100838.13;5014294;28;20662;-75
2022/08/07 07:49:27;;;;;;;1.27;0.50;;;;;;;27.23;24.50;100841.41;5010240;28;20179;-75
2022/08/07 07:51:55;;;;;;;2.08;0.60;;;;;;;26.51;26.02;100828.41;5013179;28;20244;-75
2022/08/07 07:54:22;;;;;;;1.05;0.63;;;;;;;27.29;24.30;100831.97;5014629;28;20182;-75
2022/08/07 07:56:51;;;;;;;0.80;0.43;;;;;;;26.56;25.44;100826.06;5009824;28;20198;-75
2022/08/07 07:59:18;;;;;;;2.22;0.90;;;;;;;26.51;25.40;100823.94;5014016;28;20186;-75
2022/08/07 08:01:47;;;;;;;0.88;0.50;;;;;;;26.10;26.29;100818.81;5002507;28;20230;-75
2022/08/07 08:04:15;;;;;;;0.50;0.50;;;;;;;25.19;28.13;100823.22;5013352;28;20265;-74
2022/08/07 08:06:43;;;;;;;0.85;0.55;;;;;;;24.21;29.15;100816.59;5014128;28;20229;-75
2022/08/07 08:09:10;;;;;;;1.52;0.77;;;;;;;25.87;26.93;100818.66;5014008;28;20199;-75
2022/08/07 08:11:36;;;;;;;3.28;0.60;;;;;;;28.12;24.59;100815.41;5009520;28;20226;-75
2022/08/07 08:14:02;;;;;;;1.40;0.57;;;;;;;28.91;23.53;100812.13;5013288;28;20218;-75
2022/08/07 08:16:38;;;;;;;1.35;0.60;;;;;;;28.09;24.42;100819.25;5026816;28;20187;-75
2022/08/07 08:19:07;;;;;;;2.50;0.70;;;;;;;27.70;24.62;100829.00;5012416;28;20566;-75
2022/08/07 08:27:07;;;;;;;1.90;0.47;;;;;;;27.64;24.44;100815.72;5013577;28;20213;-74
2022/08/07 08:29:49;;;;;;;0.80;0.55;;;;;;;27.72;24.72;100820.09;5013479;28;20179;-74
2022/08/07 08:32:17;;;;;;;0.98;0.70;;;;;;;28.29;23.84;100818.69;5006388;28;20351;-75
2022/08/07 08:34:45;;;;;;;1.67;0.77;;;;;;;27.02;26.19;100822.75;5016853;28;20178;-75
2022/08/07 08:37:12;;;;;;;1.83;0.55;;;;;;;27.26;25.68;100818.28;5012189;28;20179;-74
2022/08/07 08:39:41;;;;;;;0.88;0.70;;;;;;;27.29;25.79;100816.13;5012962;28;20191;-74
2022/08/07 08:42:17;;;;;;;0.93;0.65;;;;;;;27.76;24.77;100816.09;5021579;28;20257;-74
2022/08/07 08:44:53;;;;;;;2.28;0.57;;;;;;;28.13;24.54;100812.63;5013473;28;20194;-75
2022/08/07 08:47:43;;;;;;;2.28;0.80;;;;;;;29.03;23.82;100812.47;5012123;28;20272;-74
2022/08/07 08:50:16;;;;;;;3.17;0.65;;;;;;;28.57;24.12;100810.91;5003633;28;20266;-75
2022/08/07 08:53:01;;;;;;;0.82;0.43;;;;;;;27.46;25.48;100803.66;5011930;28;20657;-74
2022/08/07 08:55:32;;;;;;;0.55;0.50;;;;;;;27.01;26.24;100805.25;5013307;28;20302;-74
2022/08/07 08:58:13;;;;;;;1.60;0.90;;;;;;;27.58;26.00;100805.84;5013070;28;20183;-75
2022/08/07 09:00:44;;;;;;;1.98;0.80;;;;;;;28.18;24.88;100802.31;5007632;28;20714;-75
2022/08/07 09:03:29;;;;;;;1.63;0.60;;;;;;;27.27;25.98;100796.16;5023730;28;20194;-74
2022/08/07 09:06:16;;;;;;;2.00;0.77;;;;;;;27.74;25.84;100802.25;5011351;28;20221;-74
2022/08/07 09:09:13;;;;;;;3.35;0.90;;;;;;;28.75;24.49;100794.69;5013157;28;20257;-74
2022/08/07 09:11:48;;;;;;;2.95;0.70;;;;;;;27.57;26.00;100802.38;5021792;28;20221;-74
2022/08/07 09:14:19;;;;;;;3.20;0.98;;;;;;;28.83;24.39;100796.38;5019465;28;20638;-74
2022/08/07 09:17:01;;;;;;;1.02;0.60;;;;;;;28.42;24.68;100791.59;5022319;28;20203;-74
2022/08/07 09:19:40;;;;;;;1.15;0.80;;;;;;;29.69;23.46;100792.06;5012934;28;20189;-74
2022/08/07 09:22:24;;;;;;;2.88;0.80;;;;;;;30.62;22.65;100796.25;5001488;28;20670;-75
2022/08/07 09:25:14;;;;;;;1.42;0.73;;;;;;;29.87;23.34;100794.19;5012282;28;20228;-76
2022/08/07 09:27:58;;;;;;;1.48;0.73;;;;;;;30.96;22.84;100789.19;5011064;28;20612;-75
2022/08/07 09:30:28;;;;;;;1.75;0.80;;;;;;;31.09;22.10;100796.41;5003388;28;20224;-75
2022/08/07 09:33:05;;;;;;;1.35;0.70;;;;;;;31.11;22.13;100792.50;5024773;28;20269;-74
2022/08/07 09:35:40;;;;;;;1.40;0.60;;;;;;;30.09;23.34;100787.03;5015551;28;20182;-75
2022/08/07 09:38:30;;;;;;;1.73;0.82;;;;;;;30.28;23.43;100785.50;5011821;28;20653;-74
2022/08/07 09:41:25;;;;;;;1.25;0.90;;;;;;;29.74;24.21;100779.84;4997438;28;20735;-75
2022/08/07 09:43:56;;;;;;;4.22;1.20;;;;;;;30.26;23.67;100777.72;5016591;28;20175;-75
2022/08/07 09:46:31;;;;;;;1.13;0.55;;;;;;;31.12;22.67;100778.19;5010887;28;20653;-75
2022/08/07 09:49:16;;;;;;;1.25;0.90;;;;;;;30.31;23.48;100773.66;5010980;28;20182;-75
2022/08/07 09:52:02;;;;;;;3.63;1.02;;;;;;;29.44;24.69;100772.09;5000966;28;20230;-75
2022/08/07 09:54:40;;;;;;;1.73;0.68;;;;;;;29.78;23.93;100769.69;5000066;28;20186;-74
2022/08/07 09:57:35;;;;;;;1.67;0.73;;;;;;;30.06;23.62;100763.56;5011630;28;20187;-75
2022/08/07 10:00:19;;;;;;;2.47;0.80;;;;;;;30.89;22.94;100758.09;5010739;28;20210;-74
2022/08/07 10:03:18;;;;;;;1.80;0.75;;;;;;;30.34;23.24;100749.38;4987308;28;20215;-74
2022/08/07 10:06:03;;;;;;;0.82;0.50;;;;;;;29.36;24.55;100737.81;5009612;28;20230;-75
2022/08/07 10:08:42;;;;;;;1.20;0.70;;;;;;;29.61;24.07;100742.69;5010551;28;20684;-74
2022/08/07 10:11:41;;;;;;;1.30;0.90;;;;;;;28.86;25.33;100732.44;5003434;28;20239;-76
2022/08/07 10:14:27;;;;;;;2.03;0.70;;;;;;;28.58;25.72;100735.81;5016429;28;20680;-73
2022/08/07 10:17:05;;;;;;;2.33;1.10;;;;;;;28.78;25.89;100732.59;5021235;28;20233;-73
2022/08/07 10:19:55;;;;;;;0.85;0.65;;;;;;;30.40;23.46;100735.31;5007358;28;20183;-73
2022/08/07 10:22:42;;;;;;;1.25;0.82;;;;;;;30.32;23.89;100723.03;4993994;28;20227;-73
2022/08/07 10:25:51;;;;;;;3.05;0.93;;;;;;;27.66;26.94;100726.47;5000933;28;20653;-73
2022/08/07 10:28:22;;;;;;;1.42;0.80;;;;;;;29.20;25.05;100717.69;5011090;28;20214;-73
2022/08/07 10:31:18;;;;;;;3.13;0.80;;;;;;;31.06;22.80;100731.16;5000096;28;20280;-74
2022/08/07 10:33:59;;;;;;;3.85;0.98;;;;;;;30.52;23.07;100722.31;5000637;28;20218;-74
2022/08/07 10:36:49;;;;;;;0.98;0.57;;;;;;;32.08;21.73;100720.16;5012747;28;20201;-74
2022/08/07 10:39:27;;;;;;;1.75;0.93;;;;;;;30.73;22.54;100716.03;5000892;28;20183;-73
2022/08/07 10:42:05;;;;;;;2.10;0.88;;;;;;;29.39;24.65;100705.63;5000994;28;20237;-74
2022/08/07 10:45:13;;;;;;;2.92;0.70;;;;;;;29.89;24.08;100707.34;5010288;28;20244;-74
2022/08/07 10:48:03;;;;;;;1.67;0.70;;;;;;;28.75;25.18;100703.84;5011695;28;20641;-73
2022/08/07 10:50:34;;;;;;;1.92;0.80;;;;;;;27.57;26.71;100701.97;5005148;28;20245;-74
2022/08/07 10:53:41;;;;;;;6.07;1.00;;;;;;;25.73;29.45;100706.84;5026928;28;20175;-74
2022/08/07 10:56:35;;;;;;;3.67;0.95;;;;;;;25.31;29.71;100706.06;5009691;28;20555;-73
2022/08/07 10:59:17;;;;;;;3.08;0.90;;;;;;;24.96;31.04;100693.06;5010243;28;20178;-73
2022/08/07 11:02:04;;;;;;;0.77;0.77;;;;;;;24.71;31.51;100699.28;4990443;28;20235;-73
2022/08/07 11:04:51;;;;;;;1.83;0.90;;;;;;;24.86;31.59;100687.16;5011000;28;20179;-74
2022/08/07 11:08:05;;;;;;;1.10;1.00;;;;;;;24.96;30.87;100689.63;5009721;28;20698;-74
2022/08/07 11:11:02;;;;;;;1.50;0.80;;;;;;;24.89;31.07;100683.38;5000821;28;20244;-74
2022/08/07 11:13:35;;;;;;;3.60;0.83;;;;;;;24.65;29.26;100677.09;5010530;28;20198;-75
2022/08/07 11:16:32;;;;;;;1.03;0.50;;;;;;;24.12;30.04;100677.25;5008467;28;20242;-74
2022/08/07 11:19:12;;;;;;;1.80;0.87;;;;;;;23.95;30.60;100668.47;5009670;28;20650;-74
2022/08/07 11:21:59;;;;;;;1.83;0.80;;;;;;;23.82;31.93;100666.25;5017509;28;20229;-74
2022/08/07 11:24:43;;;;;;;5.40;0.90;;;;;;;24.12;30.84;100669.34;5014966;28;20749;-73
2022/08/07 11:27:41;;;;;;;4.57;0.90;;;;;;;24.25;31.32;100662.81;5013402;28;20226;-73
2022/08/07 11:30:13;;;;;;;2.00;0.80;;;;;;;24.20;30.16;100658.06;4991895;28;20210;-72
2022/08/07 11:32:46;;;;;;;1.07;0.80;;;;;;;24.41;30.53;100648.91;4993790;28;20191;-74
2022/08/07 11:35:21;;;;;;;0.87;0.57;;;;;;;24.61;29.95;100646.78;5018117;28;20179;-74
2022/08/07 11:38:05;;;;;;;2.20;0.97;;;;;;;24.68;29.27;100639.13;5030168;28;20194;-74
2022/08/07 11:40:58;;;;;;;1.77;0.90;;;;;;;24.70;30.13;100634.53;5008158;28;20254;-74
2022/08/07 11:43:25;;;;;;;2.30;0.77;;;;;;;24.81;29.61;100637.66;5013091;28;20183;-74
2022/08/07 11:46:27;;;;;;;0.87;0.87;;;;;;;24.93;29.79;100640.78;5012837;28;20233;-74
2022/08/07 11:49:07;;;;;;;2.53;0.70;;;;;;;25.01;29.06;100636.50;5014763;28;20186;-74
2022/08/07 11:52:10;;;;;;;2.30;0.77;;;;;;;24.74;29.13;100627.94;5015985;28;20261;-74
2022/08/07 11:55:17;;;;;;;1.17;0.70;;;;;;;25.12;28.75;100631.72;4992832;28;20205;-74
2022/08/07 11:57:54;;;;;;;2.53;0.70;;;;;;;25.01;28.55;100633.88;5012586;28;20559;-74